Time;durP1;ratioP1;P1;durP2;ratioP2;P2;SDS_P1;SDS_P2;PMS_P1;PMS_P2;Temp;Humidity;BMP_temperature;BMP_pressure;BME280_temperature;BME280_humidity;BME280_pressure;Samples;Min_cycle;Max_cycle;Signal;HPM_P1;HPM_P2
2024/01/01 00:01:05;;;;;;;14.00;10.50;;;;;;;8.08;83.01;97299.28;4110910;28;20260;-83
2024/01/01 00:03:08;;;;;;;14.13;8.98;;;;;;;8.01;83.46;97292.06;4106925;28;20216;-84
2024/01/01 00:05:11;;;;;;;13.63;8.60;;;;;;;7.96;83.77;97295.94;4109419;28;20607;-84
2024/01/01 00:07:15;;;;;;;12.32;8.15;;;;;;;7.97;84.88;97301.84;4093302;28;20677;-84
2024/01/01 00:09:18;;;;;;;11.45;7.85;;;;;;;7.93;84.52;97296.16;4112039;28;20290;-82
2024/01/01 00:11:21;;;;;;;10.60;7.15;;;;;;;7.87;84.36;97301.78;4111690;28;20392;-85
2024/01/01 00:13:32;;;;;;;9.13;6.47;;;;;;;7.88;84.96;97290.44;4109456;28;20814;-85
2024/01/01 00:15:34;;;;;;;8.23;5.82;;;;;;;7.94;83.67;97290.00;4106945;28;20567;-85
2024/01/01 00:17:37;;;;;;;10.63;6.93;;;;;;;7.90;84.97;97294.59;4112052;28;20259;-86
2024/01/01 00:19:40;;;;;;;11.05;5.85;;;;;;;7.88;85.31;97295.63;4112617;28;20213;-85
2024/01/01 00:21:42;;;;;;;10.43;6.18;;;;;;;7.85;83.59;97296.69;4111024;28;20256;-85
2024/01/01 00:24:02;;;;;;;11.90;7.20;;;;;;;7.90;85.02;97297.19;4108701;28;20669;-85
2024/01/01 00:26:05;;;;;;;11.38;6.95;;;;;;;7.85;84.64;97294.09;4107037;28;20335;-85
2024/01/01 00:28:09;;;;;;;9.77;6.68;;;;;;;7.80;84.27;97300.53;4107206;28;20324;-85
2024/01/01 00:30:14;;;;;;;10.63;7.80;;;;;;;7.79;84.72;97293.69;4091984;28;20208;-85
2024/01/01 00:32:18;;;;;;;12.68;8.55;;;;;;;7.77;85.73;97295.56;4106295;28;20215;-85
2024/01/01 00:34:21;;;;;;;15.35;8.40;;;;;;;7.78;85.49;97303.22;4124572;28;20682;-85
2024/01/01 00:36:25;;;;;;;14.43;10.20;;;;;;;7.75;84.16;97297.44;4107473;28;20225;-84
2024/01/01 00:38:37;;;;;;;11.85;9.07;;;;;;;7.73;85.42;97294.94;4092357;28;20213;-85
2024/01/01 00:40:40;;;;;;;15.75;11.40;;;;;;;7.74;85.45;97303.56;4108272;28;20213;-85
2024/01/01 00:42:47;;;;;;;17.33;11.02;;;;;;;7.76;84.47;97289.53;4110201;28;20230;-85
2024/01/01 00:44:50;;;;;;;16.30;11.43;;;;;;;7.74;85.86;97298.34;4105780;28;20959;-85
2024/01/01 00:46:54;;;;;;;17.27;11.73;;;;;;;7.72;84.89;97295.06;4112923;28;20676;-85
2024/01/01 00:49:04;;;;;;;20.63;13.52;;;;;;;7.70;86.39;97304.72;4103689;28;20205;-85
2024/01/01 00:51:08;;;;;;;20.65;13.65;;;;;;;7.72;85.27;97302.84;4108715;28;20289;-85
2024/01/01 00:53:11;;;;;;;21.17;11.80;;;;;;;7.74;86.13;97306.16;4093735;28;20225;-85
2024/01/01 00:55:15;;;;;;;17.17;11.98;;;;;;;7.78;84.74;97302.41;4107719;28;20205;-86
2024/01/01 00:57:18;;;;;;;20.73;11.85;;;;;;;7.83;84.42;97303.72;4107964;28;20201;-86
2024/01/01 00:59:22;;;;;;;18.05;12.73;;;;;;;7.84;84.24;97308.00;4117078;28;20708;-85
2024/01/01 01:01:28;;;;;;;18.60;11.50;;;;;;;7.82;85.60;97296.03;4110461;28;20247;-85
2024/01/01 01:03:35;;;;;;;18.08;10.40;;;;;;;7.80;84.86;97300.53;4094102;28;20312;-85
2024/01/01 01:05:39;;;;;;;19.63;11.05;;;;;;;7.82;85.93;97298.66;4097066;28;20240;-86
2024/01/01 01:07:43;;;;;;;16.02;11.27;;;;;;;7.79;85.10;97304.09;4111201;28;20296;-85
2024/01/01 01:09:47;;;;;;;16.98;10.40;;;;;;;7.74;86.08;97300.94;4093211;28;20227;-85
2024/01/01 01:11:50;;;;;;;16.85;10.40;;;;;;;7.74;85.56;97300.94;4110644;28;20232;-85
2024/01/01 01:13:52;;;;;;;15.35;9.70;;;;;;;7.79;86.50;97301.50;4109255;28;20211;-86
2024/01/01 01:15:56;;;;;;;15.43;9.75;;;;;;;7.77;85.66;97299.00;4111386;28;20728;-86
2024/01/01 01:17:59;;;;;;;15.25;8.73;;;;;;;7.77;86.91;97311.97;4111685;28;20214;-86
2024/01/01 01:20:05;;;;;;;16.67;8.55;;;;;;;7.80;87.30;97308.31;4108885;28;20242;-85
2024/01/01 01:22:10;;;;;;;12.50;8.05;;;;;;;7.80;86.59;97303.94;4091723;28;20252;-85
2024/01/01 01:24:15;;;;;;;14.35;7.93;;;;;;;7.80;86.85;97308.31;4092598;28;20762;-85
2024/01/01 01:26:19;;;;;;;12.73;7.95;;;;;;;7.80;86.43;97310.91;4108495;28;20246;-86
2024/01/01 01:28:23;;;;;;;11.02;7.28;;;;;;;7.82;86.96;97311.63;4091719;28;20634;-86
2024/01/01 01:30:51;;;;;;;11.75;7.22;;;;;;;7.82;86.70;97306.44;4107784;28;20201;-85
2024/01/01 01:32:55;;;;;;;10.32;7.25;;;;;;;7.76;85.93;97319.88;4087406;28;20231;-86
2024/01/01 01:34:58;;;;;;;14.18;8.65;;;;;;;7.76;87.07;97312.09;4103456;28;20256;-85
2024/01/01 01:37:02;;;;;;;10.25;7.50;;;;;;;7.74;87.03;97324.31;4106190;28;20227;-85
2024/01/01 01:39:11;;;;;;;12.55;7.60;;;;;;;7.78;87.44;97323.16;4086400;28;20221;-85
2024/01/01 01:41:14;;;;;;;13.55;7.63;;;;;;;7.78;86.29;97325.78;4087456;28;20295;-85
2024/01/01 01:43:21;;;;;;;10.52;6.22;;;;;;;7.78;87.11;97323.16;4091263;28;20225;-85
2024/01/01 01:45:24;;;;;;;12.55;7.18;;;;;;;7.79;86.04;97332.63;4104644;28;21644;-86
2024/01/01 01:47:27;;;;;;;12.77;6.63;;;;;;;7.79;87.62;97330.84;4107958;28;20222;-85
2024/01/01 01:49:42;;;;;;;13.07;6.47;;;;;;;7.76;87.63;97327.66;4100937;28;20206;-85
2024/01/01 01:51:48;;;;;;;11.10;6.18;;;;;;;7.76;87.23;97328.47;4104805;28;20218;-86
2024/01/01 01:53:53;;;;;;;13.15;6.85;;;;;;;7.76;86.39;97338.03;4106913;28;20220;-86
2024/01/01 01:55:58;;;;;;;11.55;6.65;;;;;;;7.78;87.09;97334.38;4117062;28;20695;-86
2024/01/01 01:58:01;;;;;;;12.40;6.97;;;;;;;7.72;89.10;97333.97;4108807;28;20316;-86
2024/01/01 02:00:06;;;;;;;9.40;6.03;;;;;;;7.74;89.66;97337.28;4104306;28;20291;-86
2024/01/01 02:02:13;;;;;;;12.73;6.10;;;;;;;7.75;89.23;97331.16;4105714;28;20325;-86
2024/01/01 02:04:17;;;;;;;10.90;6.25;;;;;;;7.80;89.40;97332.50;4107445;28;20237;-86
2024/01/01 02:06:20;;;;;;;11.70;6.38;;;;;;;7.78;88.56;97328.38;4103246;28;20236;-86
2024/01/01 02:08:39;;;;;;;11.90;6.65;;;;;;;7.80;88.40;97323.88;4101578;28;20207;-86
2024/01/01 02:10:44;;;;;;;10.07;6.10;;;;;;;7.80;87.87;97324.72;4103537;28;20640;-86
2024/01/01 02:12:46;;;;;;;11.82;7.03;;;;;;;7.82;88.09;97324.59;4104238;28;20253;-86
2024/01/01 02:14:49;;;;;;;8.77;5.38;;;;;;;7.83;86.95;97324.50;4091360;28;20234;-86
2024/01/01 02:16:52;;;;;;;11.07;6.65;;;;;;;7.83;87.96;97326.28;4108358;28;20214;-86
2024/01/01 02:19:08;;;;;;;11.95;6.13;;;;;;;7.81;87.97;97321.19;4108400;28;20210;-85
2024/01/01 02:21:12;;;;;;;11.45;6.10;;;;;;;7.85;87.03;97324.38;4106091;28;20234;-86
2024/01/01 02:23:18;;;;;;;8.63;5.75;;;;;;;7.86;86.77;97326.06;4107274;28;20309;-86
2024/01/01 02:25:22;;;;;;;10.82;5.85;;;;;;;7.82;87.11;97316.81;4106146;28;20235;-86
2024/01/01 02:27:25;;;;;;;8.93;4.90;;;;;;;7.81;88.41;97313.41;4107922;28;20802;-85
2024/01/01 02:29:37;;;;;;;8.95;5.47;;;;;;;7.81;87.99;97326.38;4109134;28;20208;-85
2024/01/01 02:31:40;;;;;;;12.20;5.50;;;;;;;7.81;87.18;97318.59;4104628;28;20735;-86
2024/01/01 02:33:44;;;;;;;7.50;4.90;;;;;;;7.81;87.22;97321.19;4091189;28;20236;-86
2024/01/01 02:35:47;;;;;;;9.55;4.95;;;;;;;7.81;88.22;97320.38;4101633;28;20299;-86
2024/01/01 02:37:51;;;;;;;9.88;5.50;;;;;;;7.78;87.69;97315.38;4104828;28;20205;-85
2024/01/01 02:39:56;;;;;;;8.32;5.25;;;;;;;7.82;86.57;97316.81;4110341;28;20201;-85
2024/01/01 02:41:59;;;;;;;10.77;5.50;;;;;;;7.81;87.01;97309.97;4119764;28;20226;-86
2024/01/01 02:44:03;;;;;;;8.32;5.20;;;;;;;7.76;87.90;97315.50;4105756;28;20331;-86
2024/01/01 02:46:06;;;;;;;14.02;5.38;;;;;;;7.78;87.23;97318.81;4106463;28;20233;-86
2024/01/01 02:48:09;;;;;;;7.85;4.55;;;;;;;7.76;87.18;97327.66;4109026;28;20222;-86
2024/01/01 02:50:15;;;;;;;7.10;4.13;;;;;;;7.74;87.99;97326.91;4092639;28;20206;-85
2024/01/01 02:52:18;;;;;;;10.00;5.05;;;;;;;7.74;88.00;97329.50;4110612;28;20201;-85
2024/01/01 02:54:22;;;;;;;7.30;4.05;;;;;;;7.73;87.44;97330.47;4125378;28;20218;-86
2024/01/01 02:56:28;;;;;;;6.90;4.18;;;;;;;7.73;87.39;97330.47;4093985;28;20207;-86
2024/01/01 02:58:31;;;;;;;8.55;4.68;;;;;;;7.70;87.37;97321.09;4110096;28;20271;-86
2024/01/01 03:00:34;;;;;;;10.80;4.30;;;;;;;7.70;88.98;97333.25;4108878;28;20218;-85
2024/01/01 03:02:38;;;;;;;7.53;4.45;;;;;;;7.73;89.10;97330.47;4094850;28;20207;-86
2024/01/01 03:04:41;;;;;;;5.78;4.43;;;;;;;7.72;87.60;97323.59;4117889;28;20245;-86
2024/01/01 03:06:44;;;;;;;7.10;4.18;;;;;;;7.72;89.18;97321.81;4105120;28;20298;-86
2024/01/01 03:08:47;;;;;;;10.23;5.10;;;;;;;7.73;87.92;97330.47;4090021;28;20212;-86
2024/01/01 03:10:50;;;;;;;8.35;4.57;;;;;;;7.70;87.88;97328.06;4090517;28;20246;-86
2024/01/01 03:12:54;;;;;;;11.60;5.03;;;;;;;7.69;88.85;97323.81;4092930;29;20265;-85
2024/01/01 03:14:57;;;;;;;10.45;5.47;;;;;;;7.73;90.95;97336.47;4122645;28;21491;-86
2024/01/01 03:17:01;;;;;;;9.32;4.82;;;;;;;7.70;91.29;97330.66;4110490;28;20224;-86
2024/01/01 03:19:12;;;;;;;11.00;5.25;;;;;;;7.67;92.06;97330.88;4109017;28;20219;-86
2024/01/01 03:21:16;;;;;;;10.70;5.30;;;;;;;7.69;91.95;97340.19;4090865;28;20257;-86
2024/01/01 03:23:19;;;;;;;7.57;4.68;;;;;;;7.70;91.88;97336.69;4103599;28;20714;-86
2024/01/01 03:25:23;;;;;;;8.63;5.07;;;;;;;7.72;91.16;97341.75;4104139;28;20251;-86
2024/01/01 03:27:26;;;;;;;9.68;5.13;;;;;;;7.70;92.02;97336.69;4111069;28;20799;-85
2024/01/01 03:29:30;;;;;;;8.85;4.38;;;;;;;7.69;90.61;97339.38;4092897;28;20245;-85
2024/01/01 03:31:34;;;;;;;12.07;5.53;;;;;;;7.67;92.25;97343.84;4102404;28;20213;-86
2024/01/01 03:33:37;;;;;;;10.02;5.75;;;;;;;7.67;91.39;97341.25;4106331;28;20211;-86
2024/01/01 03:35:41;;;;;;;8.60;4.70;;;;;;;7.65;91.57;97346.56;4087620;28;20648;-86
2024/01/01 03:37:43;;;;;;;12.10;5.35;;;;;;;7.64;91.62;97342.28;4107801;28;20236;-85
2024/01/01 03:39:46;;;;;;;9.98;5.32;;;;;;;7.66;90.69;97355.16;4105666;28;20694;-86
2024/01/01 03:41:48;;;;;;;8.30;5.30;;;;;;;7.67;90.73;97351.63;4090207;28;20216;-85
2024/01/01 03:43:52;;;;;;;11.40;5.55;;;;;;;7.64;91.33;97350.06;4105918;28;20300;-85
2024/01/01 03:45:56;;;;;;;8.75;5.32;;;;;;;7.71;90.35;97343.53;4109013;28;20355;-85
2024/01/01 03:47:59;;;;;;;11.57;6.25;;;;;;;7.73;89.63;97348.63;4105750;28;20201;-85
2024/01/01 03:50:06;;;;;;;11.45;5.93;;;;;;;7.70;89.30;97351.44;4106438;28;20687;-84
2024/01/01 03:52:09;;;;;;;7.40;5.00;;;;;;;7.72;91.38;97357.34;4104961;28;20943;-85
2024/01/01 03:54:14;;;;;;;9.07;5.22;;;;;;;7.69;91.09;97349.75;4108182;28;20219;-84
2024/01/01 03:56:18;;;;;;;7.53;5.13;;;;;;;7.70;91.26;97354.03;4088779;29;20327;-84
2024/01/01 03:58:36;;;;;;;8.43;4.90;;;;;;;7.69;89.68;97354.94;4124287;28;20204;-84
2024/01/01 04:00:39;;;;;;;8.57;5.13;;;;;;;7.69;89.53;97365.31;4091744;28;20222;-84
2024/01/01 04:02:46;;;;;;;8.63;5.22;;;;;;;7.67;89.45;97367.22;4092631;28;20209;-85
2024/01/01 04:04:50;;;;;;;8.95;5.20;;;;;;;7.72;90.40;97365.13;4111421;28;20229;-84
2024/01/01 04:06:53;;;;;;;10.32;5.10;;;;;;;7.72;90.14;97363.34;4109947;28;20311;-84
2024/01/01 04:08:55;;;;;;;8.45;4.43;;;;;;;7.74;90.32;97360.63;4110162;28;20213;-84
2024/01/01 04:10:58;;;;;;;8.35;4.90;;;;;;;7.75;90.49;97354.53;4110953;28;20300;-85
2024/01/01 04:13:01;;;;;;;9.25;4.90;;;;;;;7.72;89.78;97367.72;4124570;28;20290;-84
2024/01/01 04:15:05;;;;;;;9.52;4.90;;;;;;;7.65;89.29;97363.88;4093958;28;20284;-84
2024/01/01 04:17:10;;;;;;;7.72;4.60;;;;;;;7.63;90.38;97361.38;4107756;28;20451;-84
2024/01/01 04:19:14;;;;;;;9.18;5.35;;;;;;;7.69;89.35;97362.72;4092264;28;20304;-84
2024/01/01 04:21:17;;;;;;;8.52;4.63;;;;;;;7.66;89.93;97357.75;4107543;28;20220;-84
2024/01/01 04:23:22;;;;;;;9.40;4.45;;;;;;;7.70;90.99;97356.63;4108572;28;20214;-84
2024/01/01 04:25:48;;;;;;;8.02;4.80;;;;;;;7.69;90.16;97360.13;4102291;28;20222;-84
2024/01/01 04:27:51;;;;;;;8.00;4.55;;;;;;;7.68;89.30;97350.69;4102793;28;20205;-84
2024/01/01 04:29:55;;;;;;;7.10;4.80;;;;;;;7.66;89.48;97347.38;4115288;28;20210;-84
2024/01/01 04:31:57;;;;;;;6.30;4.30;;;;;;;7.70;89.25;97360.03;4106703;28;20439;-84
2024/01/01 04:34:09;;;;;;;8.63;4.78;;;;;;;7.68;89.31;97361.06;4106889;28;20310;-84
2024/01/01 04:36:13;;;;;;;6.50;3.80;;;;;;;7.68;88.64;97364.50;4107280;28;20200;-84
2024/01/01 04:38:16;;;;;;;7.53;3.67;;;;;;;7.71;89.31;97368.63;4108103;28;20228;-84
2024/01/01 04:40:20;;;;;;;5.82;3.72;;;;;;;7.70;90.36;97361.81;4109901;28;20219;-84
2024/01/01 04:42:23;;;;;;;4.95;3.30;;;;;;;7.63;89.84;97360.56;4090936;28;20210;-84
2024/01/01 04:44:27;;;;;;;9.32;4.03;;;;;;;7.55;89.25;97355.88;4105222;28;20778;-84
2024/01/01 04:46:30;;;;;;;7.15;3.88;;;;;;;7.56;88.67;97359.31;4105296;28;20282;-84
2024/01/01 04:48:45;;;;;;;8.02;3.60;;;;;;;7.51;88.72;97349.25;4109924;28;20718;-84
2024/01/01 04:50:48;;;;;;;10.95;3.70;;;;;;;7.42;90.12;97350.81;4106413;28;20212;-85
2024/01/01 04:52:52;;;;;;;4.93;2.90;;;;;;;7.45;89.41;97355.78;4104315;28;20583;-86
2024/01/01 04:54:57;;;;;;;9.68;2.90;;;;;;;7.52;89.02;97350.09;4091370;28;20244;-86
2024/01/01 04:57:00;;;;;;;4.57;2.83;;;;;;;7.58;89.65;97339.28;4091016;28;20664;-86
2024/01/01 04:59:03;;;;;;;5.65;2.95;;;;;;;7.58;89.14;97347.06;4109458;28;20204;-86
2024/01/01 05:01:06;;;;;;;4.60;2.65;;;;;;;7.62;89.82;97348.50;4104125;28;20340;-86
2024/01/01 05:03:09;;;;;;;5.60;2.63;;;;;;;7.56;89.85;97348.91;4105874;28;20669;-86
2024/01/01 05:05:21;;;;;;;4.35;2.60;;;;;;;7.51;89.84;97349.25;4119044;28;20244;-85
2024/01/01 05:07:25;;;;;;;4.90;2.67;;;;;;;7.55;90.03;97347.28;4107342;28;20290;-86
2024/01/01 05:09:29;;;;;;;5.80;2.55;;;;;;;7.62;89.23;97354.53;4107526;28;20225;-86
2024/01/01 05:11:33;;;;;;;9.95;2.70;;;;;;;7.67;88.05;97352.47;4101108;28;20337;-86
2024/01/01 05:13:48;;;;;;;5.20;2.40;;;;;;;7.66;88.88;97350.78;4103232;28;20623;-86
2024/01/01 05:15:51;;;;;;;4.68;2.00;;;;;;;7.66;89.04;97353.38;4102701;28;20205;-86
2024/01/01 05:17:54;;;;;;;8.75;2.65;;;;;;;7.59;87.72;97361.69;4095015;28;20221;-86
2024/01/01 05:19:58;;;;;;;6.00;2.45;;;;;;;7.54;89.30;97351.63;4099606;28;20765;-85
2024/01/01 05:22:03;;;;;;;3.78;2.10;;;;;;;7.54;88.50;97361.19;4091639;28;20239;-86
2024/01/01 05:24:07;;;;;;;4.53;1.90;;;;;;;7.49;88.36;97363.25;4106806;28;20214;-86
2024/01/01 05:26:11;;;;;;;2.40;1.60;;;;;;;7.51;88.78;97362.22;4106038;28;20704;-86
2024/01/01 05:28:15;;;;;;;4.35;1.95;;;;;;;7.50;88.32;97372.69;4092792;28;20218;-86
2024/01/01 05:30:18;;;;;;;7.47;2.55;;;;;;;7.43;88.56;97363.69;4105421;28;20203;-86
2024/01/01 05:32:21;;;;;;;4.80;2.17;;;;;;;7.33;89.66;97360.03;4102586;28;20200;-86
2024/01/01 05:34:24;;;;;;;6.00;2.00;;;;;;;7.31;89.40;97372.28;4089963;28;20631;-86
2024/01/01 05:36:28;;;;;;;2.30;1.25;;;;;;;7.23;89.85;97377.16;4106502;28;20214;-86
2024/01/01 05:38:38;;;;;;;4.25;1.67;;;;;;;7.22;90.64;97372.91;4098961;28;20206;-86
2024/01/01 05:40:44;;;;;;;4.88;1.40;;;;;;;7.18;90.04;97376.59;4105494;28;20609;-86
2024/01/01 05:42:49;;;;;;;3.13;1.45;;;;;;;7.16;91.08;97375.88;4120078;28;20209;-86
2024/01/01 05:44:52;;;;;;;4.38;1.70;;;;;;;7.15;89.85;97374.22;4091560;29;20233;-85
2024/01/01 05:46:54;;;;;;;5.00;1.45;;;;;;;7.16;90.92;97368.13;4107190;28;20235;-85
2024/01/01 05:48:57;;;;;;;5.45;1.30;;;;;;;7.15;91.02;97369.03;4124145;28;20204;-86
2024/01/01 05:51:00;;;;;;;3.75;1.52;;;;;;;7.15;90.84;97369.03;4107719;28;20208;-86
2024/01/01 05:53:05;;;;;;;4.75;1.42;;;;;;;7.16;89.95;97373.28;4091396;28;20259;-86
2024/01/01 05:55:11;;;;;;;3.75;1.27;;;;;;;7.16;90.00;97375.06;4123031;28;20220;-86
2024/01/01 05:57:14;;;;;;;5.90;1.23;;;;;;;7.14;90.97;97374.31;4089247;28;20199;-86
2024/01/01 05:59:36;;;;;;;4.18;1.40;;;;;;;7.14;91.70;97376.91;4121141;28;20215;-86
2024/01/01 06:01:40;;;;;;;4.32;1.77;;;;;;;7.12;90.87;97389.97;4100827;28;20215;-84
2024/01/01 06:03:44;;;;;;;3.80;1.50;;;;;;;7.10;91.69;97391.03;4105971;28;20205;-84
2024/01/01 06:05:47;;;;;;;4.47;1.35;;;;;;;7.11;91.20;97392.66;4090611;28;20220;-84
2024/01/01 06:08:02;;;;;;;3.20;1.50;;;;;;;7.12;92.04;97395.16;4108121;28;20665;-84
2024/01/01 06:10:07;;;;;;;4.43;1.40;;;;;;;7.12;91.25;97405.53;4121771;28;20228;-84
2024/01/01 06:12:10;;;;;;;5.47;1.20;;;;;;;7.12;91.33;97410.72;4107268;28;20347;-84
2024/01/01 06:14:14;;;;;;;2.20;1.00;;;;;;;7.12;90.60;97408.13;4102950;28;20291;-84
2024/01/01 06:16:18;;;;;;;5.47;1.50;;;;;;;7.17;91.10;97411.28;4105428;28;20309;-85
2024/01/01 06:18:30;;;;;;;2.42;1.00;;;;;;;7.18;91.21;97410.31;4106948;28;20200;-85
2024/01/01 06:20:33;;;;;;;4.18;1.20;;;;;;;7.18;90.74;97420.69;4121251;28;20240;-85
2024/01/01 06:22:37;;;;;;;6.43;1.23;;;;;;;7.16;89.98;97416.56;4108138;28;20209;-84
2024/01/01 06:24:40;;;;;;;3.92;1.02;;;;;;;7.16;91.14;97414.78;4107101;28;20588;-84
2024/01/01 06:26:43;;;;;;;3.80;1.20;;;;;;;7.19;89.77;97422.34;4093633;28;20793;-84
2024/01/01 06:28:47;;;;;;;4.57;1.30;;;;;;;7.19;90.09;97421.53;4109477;28;20612;-84
2024/01/01 06:30:51;;;;;;;4.80;1.40;;;;;;;7.19;90.12;97421.53;4095234;29;20206;-84
2024/01/01 06:32:56;;;;;;;3.80;1.35;;;;;;;7.18;89.28;97418.09;4124749;28;20701;-84
2024/01/01 06:34:58;;;;;;;3.80;1.27;;;;;;;7.21;89.20;97422.25;4125540;28;20703;-84
2024/01/01 06:37:01;;;;;;;5.53;1.10;;;;;;;7.21;89.91;97428.25;4093452;28;20249;-84
2024/01/01 06:39:05;;;;;;;4.18;1.40;;;;;;;7.20;89.83;97418.00;4112832;28;20224;-84
2024/01/01 06:41:08;;;;;;;2.58;1.10;;;;;;;7.21;89.22;97419.66;4110849;28;20308;-84
2024/01/01 06:43:11;;;;;;;3.45;1.38;;;;;;;7.24;89.15;97422.88;4108424;28;20210;-84
2024/01/01 06:45:15;;;;;;;4.43;1.60;;;;;;;7.26;89.00;97415.84;4091826;28;20206;-84
2024/01/01 06:47:22;;;;;;;3.80;0.88;;;;;;;7.27;88.37;97416.66;4095345;28;20233;-84
2024/01/01 06:49:26;;;;;;;2.20;1.05;;;;;;;7.20;89.16;97418.00;4111339;28;20296;-84
2024/01/01 06:51:34;;;;;;;5.78;1.85;;;;;;;7.22;88.05;97418.75;4107400;28;20241;-85
2024/01/01 06:53:37;;;;;;;3.25;1.02;;;;;;;7.24;89.57;97419.47;4091181;28;20785;-85
2024/01/01 06:55:40;;;;;;;3.70;1.50;;;;;;;7.23;87.55;97417.78;4109415;28;20259;-85
2024/01/01 06:57:44;;;;;;;5.57;2.35;;;;;;;7.20;87.89;97418.84;4122533;28;20205;-85
2024/01/01 06:59:46;;;;;;;2.95;1.10;;;;;;;7.21;88.36;97422.25;4108585;28;20622;-84
2024/01/01 07:01:49;;;;;;;4.78;1.30;;;;;;;7.15;86.98;97420.06;4108803;28;20205;-85
2024/01/01 07:03:53;;;;;;;5.20;1.50;;;;;;;7.12;88.50;97428.88;4109767;28;20293;-84
2024/01/01 07:05:56;;;;;;;2.70;1.10;;;;;;;7.12;88.27;97426.28;4111600;28;20203;-84
2024/01/01 07:08:00;;;;;;;2.70;1.20;;;;;;;7.08;87.98;97418.78;4103021;28;20238;-84
2024/01/01 07:10:03;;;;;;;6.50;1.65;;;;;;;7.05;88.30;97435.41;4109324;28;20850;-84
2024/01/01 07:12:20;;;;;;;2.45;1.10;;;;;;;7.02;88.08;97433.91;4125694;28;20208;-86
2024/01/01 07:14:24;;;;;;;3.28;1.23;;;;;;;7.02;87.17;97436.50;4124847;28;20201;-86
2024/01/01 07:16:27;;;;;;;3.75;1.67;;;;;;;6.93;88.10;97445.72;4109875;28;20313;-86
2024/01/01 07:18:36;;;;;;;3.45;1.38;;;;;;;6.90;87.81;97445.94;4109932;28;20289;-86
2024/01/01 07:20:39;;;;;;;6.40;2.13;;;;;;;6.95;88.30;97459.41;4109722;28;20228;-86
2024/01/01 07:22:43;;;;;;;3.88;1.30;;;;;;;6.91;88.57;97457.13;4091878;28;20216;-86
2024/01/01 07:24:46;;;;;;;6.43;1.40;;;;;;;6.90;87.91;97465.81;4125089;28;20221;-85
2024/01/01 07:26:50;;;;;;;4.63;1.23;;;;;;;6.85;88.24;97468.69;4108371;28;20325;-85
2024/01/01 07:28:53;;;;;;;3.97;1.20;;;;;;;6.85;88.04;97478.25;4107932;28;20613;-86
2024/01/01 07:30:57;;;;;;;4.75;1.67;;;;;;;6.86;88.15;97472.13;4092343;28;20205;-86
2024/01/01 07:33:01;;;;;;;3.75;0.90;;;;;;;6.85;88.88;97476.47;4122866;28;20702;-86
2024/01/01 07:35:06;;;;;;;4.97;1.02;;;;;;;6.85;89.12;97475.66;4109082;28;20277;-86
2024/01/01 07:37:11;;;;;;;2.65;1.00;;;;;;;6.86;88.32;97479.91;4090199;28;20207;-86
2024/01/01 07:39:19;;;;;;;4.47;1.35;;;;;;;6.86;89.09;97477.31;4105232;28;20222;-86
2024/01/01 07:41:22;;;;;;;6.75;1.15;;;;;;;6.89;88.17;97484.91;4108068;28;20200;-86
2024/01/01 07:43:40;;;;;;;5.07;1.10;;;;;;;6.92;88.66;97488.13;4107004;28;20213;-86
2024/01/01 07:45:44;;;;;;;5.07;1.50;;;;;;;6.90;89.00;97489.13;4103964;28;20205;-86
2024/01/01 07:47:47;;;;;;;5.43;1.42;;;;;;;6.90;88.35;97497.75;4107721;28;20250;-86
2024/01/01 07:49:50;;;;;;;3.33;1.50;;;;;;;6.92;89.05;97495.06;4103285;28;20241;-86
2024/01/01 07:51:53;;;;;;;3.83;1.10;;;;;;;6.94;88.68;97496.63;4092767;28;20203;-86
2024/01/01 07:53:56;;;;;;;6.20;1.60;;;;;;;6.98;87.97;97499.88;4105256;28;20216;-86
2024/01/01 07:56:04;;;;;;;5.70;1.50;;;;;;;7.05;88.40;97497.59;4104490;28;20206;-86
2024/01/01 07:58:08;;;;;;;5.55;1.10;;;;;;;7.14;87.29;97501.34;4089493;28;20245;-86
2024/01/01 08:00:12;;;;;;;7.18;1.10;;;;;;;7.19;87.17;97501.91;4088907;28;20213;-86
2024/01/01 08:02:15;;;;;;;3.67;1.20;;;;;;;7.25;87.27;97504.94;4109837;28;20205;-86
2024/01/01 08:04:26;;;;;;;5.55;0.93;;;;;;;7.40;86.47;97516.09;4108544;28;20209;-87
2024/01/01 08:06:29;;;;;;;4.22;1.58;;;;;;;7.58;87.34;97518.31;4107171;28;20205;-86
2024/01/01 08:08:32;;;;;;;3.70;1.30;;;;;;;7.67;87.38;97521.13;4086645;28;20252;-86
2024/01/01 08:10:36;;;;;;;4.07;1.40;;;;;;;7.80;85.75;97521.13;4109786;28;20286;-85
2024/01/01 08:12:40;;;;;;;4.32;1.48;;;;;;;7.85;84.61;97521.66;4108951;28;20205;-86
2024/01/01 08:14:43;;;;;;;3.35;1.00;;;;;;;7.90;85.82;97522.19;4109543;28;20237;-86
2024/01/01 08:16:46;;;;;;;3.83;1.15;;;;;;;7.96;85.74;97522.59;4110463;28;20200;-86
2024/01/01 08:18:50;;;;;;;4.18;1.20;;;;;;;8.03;84.49;97521.28;4095473;28;20212;-86
2024/01/01 08:20:53;;;;;;;4.38;1.20;;;;;;;8.02;84.76;97517.00;4102750;28;20902;-86
2024/01/01 08:22:57;;;;;;;1.90;1.10;;;;;;;8.04;83.63;97513.38;4105004;28;20206;-86
2024/01/01 08:25:00;;;;;;;5.03;1.30;;;;;;;7.97;83.51;97532.06;4086744;29;20206;-86
2024/01/01 08:27:04;;;;;;;3.85;1.38;;;;;;;8.04;85.00;97523.75;4108737;28;20212;-86
2024/01/01 08:29:14;;;;;;;4.68;1.40;;;;;;;8.11;85.45;97526.75;4093078;28;20293;-86
2024/01/01 08:31:19;;;;;;;5.00;1.30;;;;;;;8.15;86.01;97542.06;4110472;28;20207;-86
2024/01/01 08:33:34;;;;;;;4.65;1.00;;;;;;;8.19;85.16;97543.50;4093143;29;20569;-86
2024/01/01 08:35:36;;;;;;;3.90;0.93;;;;;;;8.26;84.95;97538.75;4123994;28;20263;-86
2024/01/01 08:37:40;;;;;;;2.25;0.82;;;;;;;8.30;84.68;97546.22;4108281;28;20265;-86
2024/01/01 08:39:44;;;;;;;6.80;1.10;;;;;;;8.22;84.67;97542.47;4109381;28;20205;-86
2024/01/01 08:41:47;;;;;;;4.75;1.17;;;;;;;8.13;84.03;97541.34;4088306;28;20249;-86
2024/01/01 08:43:56;;;;;;;3.70;0.95;;;;;;;8.20;83.93;97545.19;4121408;28;20720;-86
2024/01/01 08:46:02;;;;;;;3.35;1.15;;;;;;;8.35;83.79;97546.75;4104320;28;20300;-86
2024/01/01 08:48:05;;;;;;;3.28;1.10;;;;;;;8.27;83.19;97548.19;4124996;28;20305;-86
2024/01/01 08:50:09;;;;;;;3.05;1.10;;;;;;;8.14;84.31;97539.56;4108304;28;20217;-86
2024/01/01 08:52:12;;;;;;;6.18;1.40;;;;;;;8.12;85.15;97537.09;4107923;28;20584;-86
2024/01/01 08:54:16;;;;;;;3.10;1.30;;;;;;;8.14;84.78;97524.81;4108808;28;20215;-86
2024/01/01 08:56:18;;;;;;;5.13;1.17;;;;;;;8.17;85.38;97527.22;4108638;28;20200;-86
2024/01/01 08:58:21;;;;;;;4.40;1.10;;;;;;;8.30;85.75;97537.59;4109346;28;20205;-86
2024/01/01 09:00:25;;;;;;;3.40;0.95;;;;;;;8.27;84.86;97538.66;4090890;28;20234;-86
2024/01/01 09:02:30;;;;;;;3.70;1.20;;;;;;;8.34;85.63;97546.84;4118156;28;20211;-86
2024/01/01 09:04:33;;;;;;;3.58;1.10;;;;;;;8.34;85.80;97542.47;4105666;28;20209;-86
2024/01/01 09:06:36;;;;;;;2.85;1.38;;;;;;;8.21;85.40;97525.22;4122348;28;20303;-86
2024/01/01 09:08:43;;;;;;;3.28;0.98;;;;;;;8.07;86.11;97544.34;4109828;28;20223;-86
2024/01/01 09:10:46;;;;;;;5.90;1.60;;;;;;;7.91;85.30;97532.47;4110451;28;20201;-86
2024/01/01 09:12:48;;;;;;;3.30;1.13;;;;;;;7.79;86.63;97528.09;4106988;28;20231;-86
2024/01/01 09:14:52;;;;;;;5.13;1.17;;;;;;;7.75;87.04;97526.63;4103630;28;20645;-87
2024/01/01 09:16:55;;;;;;;6.55;1.60;;;;;;;7.77;86.36;97526.53;4102230;28;20202;-89
2024/01/01 09:19:07;;;;;;;2.35;1.00;;;;;;;7.83;86.06;97537.31;4107359;28;20233;-90
2024/01/01 09:21:14;;;;;;;3.10;1.10;;;;;;;7.82;86.70;97540.03;4105933;28;20284;-87
2024/01/01 09:23:17;;;;;;;4.53;1.02;;;;;;;7.98;86.65;97541.50;4101419;28;20666;-87
2024/01/01 09:25:20;;;;;;;5.85;1.88;;;;;;;8.00;86.91;97553.44;4122417;28;20210;-86
2024/01/01 09:27:24;;;;;;;5.00;1.60;;;;;;;8.06;87.33;97560.84;4100649;28;20210;-86
2024/01/01 09:29:27;;;;;;;3.55;0.90;;;;;;;8.08;85.96;97560.72;4107987;28;20238;-86
2024/01/01 09:31:31;;;;;;;4.75;1.00;;;;;;;8.14;86.06;97560.34;4103481;28;20686;-84
2024/01/01 09:33:39;;;;;;;6.38;0.93;;;;;;;8.16;86.04;97564.53;4103864;28;20212;-84
2024/01/01 09:35:45;;;;;;;5.35;1.92;;;;;;;8.29;86.35;97560.16;4104116;28;20249;-86
2024/01/01 09:37:52;;;;;;;5.28;1.15;;;;;;;8.32;85.03;97567.72;4104726;28;20596;-84
2024/01/01 09:39:55;;;;;;;3.00;1.13;;;;;;;8.41;84.20;97571.47;4114862;28;20206;-84
2024/01/01 09:41:59;;;;;;;7.32;1.38;;;;;;;8.49;84.90;97575.19;4116494;28;20221;-83
2024/01/01 09:44:03;;;;;;;2.92;1.25;;;;;;;8.56;84.88;97564.28;4106876;28;20216;-85
2024/01/01 09:46:06;;;;;;;3.63;2.03;;;;;;;8.64;85.01;97571.56;4091436;28;20990;-84
2024/01/01 09:48:10;;;;;;;2.40;0.80;;;;;;;8.76;84.95;97575.91;4107061;28;20211;-84
2024/01/01 09:50:14;;;;;;;3.10;0.90;;;;;;;8.87;85.12;97566.44;4106477;28;20212;-83
2024/01/01 09:52:18;;;;;;;7.57;1.50;;;;;;;8.92;83.47;97580.75;4102130;28;20258;-84